sensor_id;sensor_type;location;lat;lon;timestamp;P1;durP1;ratioP1;P2;durP2;ratioP2
67965;SDS011;54749;47.850;9.002;2023-04-30T00:00:30;11.50;;;5.10;;
67965;SDS011;54749;47.850;9.002;2023-04-30T00:03:17;11.95;;;5.82;;
67965;SDS011;54749;47.850;9.002;2023-04-30T00:05:45;13.68;;;6.32;;
67965;SDS011;54749;47.850;9.002;2023-04-30T00:08:16;12.50;;;5.03;;
67965;SDS011;54749;47.850;9.002;2023-04-30T00:10:43;15.27;;;5.80;;
67965;SDS011;54749;47.850;9.002;2023-04-30T00:13:11;13.65;;;6.40;;
67965;SDS011;54749;47.850;9.002;2023-04-30T00:15:39;15.75;;;6.93;;
67965;SDS011;54749;47.850;9.002;2023-04-30T00:18:07;13.50;;;6.30;;
67965;SDS011;54749;47.850;9.002;2023-04-30T00:20:34;15.17;;;6.63;;
67965;SDS011;54749;47.850;9.002;2023-04-30T00:23:02;15.30;;;7.10;;
67965;SDS011;54749;47.850;9.002;2023-04-30T00:25:29;14.50;;;6.38;;
67965;SDS011;54749;47.850;9.002;2023-04-30T00:27:56;13.70;;;6.18;;
67965;SDS011;54749;47.850;9.002;2023-04-30T00:30:24;17.85;;;6.55;;
67965;SDS011;54749;47.850;9.002;2023-04-30T00:32:52;12.53;;;6.03;;
67965;SDS011;54749;47.850;9.002;2023-04-30T00:35:19;14.50;;;6.40;;
67965;SDS011;54749;47.850;9.002;2023-04-30T00:37:47;11.25;;;5.40;;
67965;SDS011;54749;47.850;9.002;2023-04-30T00:40:14;12.55;;;5.55;;
67965;SDS011;54749;47.850;9.002;2023-04-30T00:42:41;12.73;;;5.60;;
67965;SDS011;54749;47.850;9.002;2023-04-30T00:45:08;11.27;;;5.07;;
67965;SDS011;54749;47.850;9.002;2023-04-30T00:47:36;11.52;;;5.30;;
67965;SDS011;54749;47.850;9.002;2023-04-30T00:50:03;11.25;;;4.72;;
67965;SDS011;54749;47.850;9.002;2023-04-30T00:52:31;10.93;;;5.03;;
67965;SDS011;54749;47.850;9.002;2023-04-30T00:54:58;11.07;;;4.90;;
67965;SDS011;54749;47.850;9.002;2023-04-30T00:57:26;11.57;;;4.60;;
67965;SDS011;54749;47.850;9.002;2023-04-30T00:59:54;11.05;;;5.32;;
67965;SDS011;54749;47.850;9.002;2023-04-30T01:02:22;10.90;;;4.80;;
67965;SDS011;54749;47.850;9.002;2023-04-30T01:04:49;11.20;;;5.40;;
67965;SDS011;54749;47.850;9.002;2023-04-30T01:07:16;11.55;;;5.70;;
67965;SDS011;54749;47.850;9.002;2023-04-30T01:09:44;11.87;;;5.20;;
67965;SDS011;54749;47.850;9.002;2023-04-30T01:18:04;13.57;;;5.93;;
67965;SDS011;54749;47.850;9.002;2023-04-30T01:20:38;12.98;;;6.00;;
67965;SDS011;54749;47.850;9.002;2023-04-30T01:26:10;12.80;;;5.90;;
67965;SDS011;54749;47.850;9.002;2023-04-30T01:28:55;14.05;;;5.90;;
67965;SDS011;54749;47.850;9.002;2023-04-30T01:31:22;12.82;;;5.85;;
67965;SDS011;54749;47.850;9.002;2023-04-30T01:33:50;13.05;;;5.55;;
67965;SDS011;54749;47.850;9.002;2023-04-30T01:41:46;14.13;;;6.07;;
67965;SDS011;54749;47.850;9.002;2023-04-30T01:47:37;14.85;;;5.88;;
67965;SDS011;54749;47.850;9.002;2023-04-30T01:52:42;14.05;;;6.00;;
67965;SDS011;54749;47.850;9.002;2023-04-30T01:55:16;12.13;;;5.78;;
67965;SDS011;54749;47.850;9.002;2023-04-30T01:57:53;11.80;;;5.15;;
67965;SDS011;54749;47.850;9.002;2023-04-30T02:00:26;11.90;;;5.53;;
67965;SDS011;54749;47.850;9.002;2023-04-30T02:02:54;10.73;;;4.93;;
67965;SDS011;54749;47.850;9.002;2023-04-30T02:05:22;12.68;;;5.57;;
67965;SDS011;54749;47.850;9.002;2023-04-30T02:07:50;11.45;;;5.25;;
67965;SDS011;54749;47.850;9.002;2023-04-30T02:10:19;12.07;;;5.90;;
67965;SDS011;54749;47.850;9.002;2023-04-30T02:12:48;12.02;;;5.50;;
67965;SDS011;54749;47.850;9.002;2023-04-30T02:15:15;11.50;;;5.17;;
67965;SDS011;54749;47.850;9.002;2023-04-30T02:17:42;14.27;;;5.72;;
67965;SDS011;54749;47.850;9.002;2023-04-30T02:20:10;13.38;;;5.57;;
67965;SDS011;54749;47.850;9.002;2023-04-30T02:22:38;12.60;;;5.60;;
67965;SDS011;54749;47.850;9.002;2023-04-30T02:25:05;12.75;;;6.20;;
67965;SDS011;54749;47.850;9.002;2023-04-30T02:27:33;12.10;;;6.10;;
67965;SDS011;54749;47.850;9.002;2023-04-30T02:30:00;11.90;;;5.47;;
67965;SDS011;54749;47.850;9.002;2023-04-30T02:32:28;11.48;;;5.10;;
67965;SDS011;54749;47.850;9.002;2023-04-30T02:34:56;12.55;;;5.82;;
67965;SDS011;54749;47.850;9.002;2023-04-30T02:37:23;13.52;;;6.13;;
67965;SDS011;54749;47.850;9.002;2023-04-30T02:39:50;13.30;;;6.03;;
67965;SDS011;54749;47.850;9.002;2023-04-30T02:42:17;13.77;;;5.70;;
67965;SDS011;54749;47.850;9.002;2023-04-30T02:44:45;12.02;;;5.68;;
67965;SDS011;54749;47.850;9.002;2023-04-30T02:47:12;12.35;;;5.68;;
67965;SDS011;54749;47.850;9.002;2023-04-30T02:49:39;12.27;;;5.97;;
67965;SDS011;54749;47.850;9.002;2023-04-30T02:52:06;13.60;;;6.03;;
67965;SDS011;54749;47.850;9.002;2023-04-30T02:54:36;16.17;;;6.65;;
67965;SDS011;54749;47.850;9.002;2023-04-30T02:57:03;13.75;;;6.53;;
67965;SDS011;54749;47.850;9.002;2023-04-30T02:59:30;14.13;;;6.40;;
67965;SDS011;54749;47.850;9.002;2023-04-30T03:01:57;14.50;;;6.00;;
67965;SDS011;54749;47.850;9.002;2023-04-30T03:04:24;13.97;;;6.50;;
67965;SDS011;54749;47.850;9.002;2023-04-30T03:06:51;13.43;;;6.85;;
67965;SDS011;54749;47.850;9.002;2023-04-30T03:09:19;13.30;;;6.03;;
67965;SDS011;54749;47.850;9.002;2023-04-30T03:11:46;12.77;;;5.80;;
67965;SDS011;54749;47.850;9.002;2023-04-30T03:14:13;15.10;;;6.53;;
67965;SDS011;54749;47.850;9.002;2023-04-30T03:16:41;14.67;;;6.50;;
67965;SDS011;54749;47.850;9.002;2023-04-30T03:19:08;13.10;;;6.38;;
67965;SDS011;54749;47.850;9.002;2023-04-30T03:21:35;12.90;;;6.35;;
67965;SDS011;54749;47.850;9.002;2023-04-30T03:24:02;11.70;;;6.03;;
67965;SDS011;54749;47.850;9.002;2023-04-30T03:26:29;12.77;;;6.32;;
67965;SDS011;54749;47.850;9.002;2023-04-30T03:28:57;12.23;;;6.03;;
67965;SDS011;54749;47.850;9.002;2023-04-30T03:31:24;12.52;;;6.10;;
67965;SDS011;54749;47.850;9.002;2023-04-30T03:33:51;13.77;;;6.40;;
67965;SDS011;54749;47.850;9.002;2023-04-30T03:36:18;13.43;;;6.53;;
67965;SDS011;54749;47.850;9.002;2023-04-30T03:38:45;13.75;;;7.20;;
67965;SDS011;54749;47.850;9.002;2023-04-30T03:41:12;13.30;;;6.80;;
67965;SDS011;54749;47.850;9.002;2023-04-30T03:43:39;13.88;;;6.72;;
67965;SDS011;54749;47.850;9.002;2023-04-30T03:46:06;13.35;;;6.35;;
67965;SDS011;54749;47.850;9.002;2023-04-30T03:48:34;15.15;;;7.55;;
67965;SDS011;54749;47.850;9.002;2023-04-30T03:51:02;12.93;;;6.28;;
67965;SDS011;54749;47.850;9.002;2023-04-30T03:53:30;13.70;;;6.93;;
67965;SDS011;54749;47.850;9.002;2023-04-30T03:55:57;14.00;;;7.05;;
67965;SDS011;54749;47.850;9.002;2023-04-30T03:58:26;13.82;;;6.78;;
67965;SDS011;54749;47.850;9.002;2023-04-30T04:00:52;13.80;;;6.57;;
67965;SDS011;54749;47.850;9.002;2023-04-30T04:03:21;15.13;;;7.40;;
67965;SDS011;54749;47.850;9.002;2023-04-30T04:05:48;14.30;;;7.17;;
67965;SDS011;54749;47.850;9.002;2023-04-30T04:08:15;18.60;;;8.55;;
67965;SDS011;54749;47.850;9.002;2023-04-30T04:10:42;15.40;;;8.02;;
67965;SDS011;54749;47.850;9.002;2023-04-30T04:13:10;14.35;;;6.97;;
67965;SDS011;54749;47.850;9.002;2023-04-30T04:15:37;15.05;;;7.80;;
67965;SDS011;54749;47.850;9.002;2023-04-30T04:18:04;14.10;;;7.30;;
67965;SDS011;54749;47.850;9.002;2023-04-30T04:20:34;16.67;;;8.23;;
67965;SDS011;54749;47.850;9.002;2023-04-30T04:23:02;15.30;;;7.95;;
67965;SDS011;54749;47.850;9.002;2023-04-30T04:25:29;15.55;;;7.93;;
67965;SDS011;54749;47.850;9.002;2023-04-30T04:27:56;15.18;;;8.05;;
67965;SDS011;54749;47.850;9.002;2023-04-30T04:30:23;14.23;;;7.37;;
67965;SDS011;54749;47.850;9.002;2023-04-30T04:32:50;15.82;;;8.27;;
67965;SDS011;54749;47.850;9.002;2023-04-30T04:35:19;14.82;;;7.32;;
67965;SDS011;54749;47.850;9.002;2023-04-30T04:37:47;16.55;;;7.93;;
67965;SDS011;54749;47.850;9.002;2023-04-30T04:40:14;18.05;;;8.85;;
67965;SDS011;54749;47.850;9.002;2023-04-30T04:42:41;17.70;;;8.97;;
67965;SDS011;54749;47.850;9.002;2023-04-30T04:45:10;16.90;;;8.68;;
67965;SDS011;54749;47.850;9.002;2023-04-30T04:47:38;15.38;;;8.27;;
67965;SDS011;54749;47.850;9.002;2023-04-30T04:50:05;14.25;;;7.47;;
67965;SDS011;54749;47.850;9.002;2023-04-30T04:52:32;15.45;;;8.45;;
67965;SDS011;54749;47.850;9.002;2023-04-30T04:55:00;16.53;;;8.57;;
67965;SDS011;54749;47.850;9.002;2023-04-30T04:57:27;18.27;;;9.05;;
67965;SDS011;54749;47.850;9.002;2023-04-30T04:59:54;16.77;;;8.65;;
67965;SDS011;54749;47.850;9.002;2023-04-30T05:02:22;16.38;;;8.02;;
67965;SDS011;54749;47.850;9.002;2023-04-30T05:04:50;17.58;;;8.52;;
67965;SDS011;54749;47.850;9.002;2023-04-30T05:07:18;16.77;;;8.13;;
67965;SDS011;54749;47.850;9.002;2023-04-30T05:09:45;17.15;;;8.57;;
67965;SDS011;54749;47.850;9.002;2023-04-30T05:12:13;17.35;;;8.98;;
67965;SDS011;54749;47.850;9.002;2023-04-30T05:14:41;16.48;;;8.60;;
67965;SDS011;54749;47.850;9.002;2023-04-30T05:17:09;16.35;;;8.50;;
67965;SDS011;54749;47.850;9.002;2023-04-30T05:19:35;18.47;;;8.57;;
67965;SDS011;54749;47.850;9.002;2023-04-30T05:22:03;14.48;;;8.10;;
67965;SDS011;54749;47.850;9.002;2023-04-30T05:24:30;18.33;;;9.70;;
67965;SDS011;54749;47.850;9.002;2023-04-30T05:26:57;16.55;;;8.18;;
67965;SDS011;54749;47.850;9.002;2023-04-30T05:29:24;15.82;;;8.25;;
67965;SDS011;54749;47.850;9.002;2023-04-30T05:31:51;17.43;;;9.00;;
67965;SDS011;54749;47.850;9.002;2023-04-30T05:34:19;16.67;;;8.57;;
67965;SDS011;54749;47.850;9.002;2023-04-30T05:36:46;14.45;;;7.43;;
67965;SDS011;54749;47.850;9.002;2023-04-30T05:39:13;16.88;;;8.35;;
67965;SDS011;54749;47.850;9.002;2023-04-30T05:41:40;18.63;;;8.82;;
67965;SDS011;54749;47.850;9.002;2023-04-30T05:44:07;16.53;;;8.70;;
67965;SDS011;54749;47.850;9.002;2023-04-30T05:46:34;16.90;;;8.18;;
67965;SDS011;54749;47.850;9.002;2023-04-30T05:49:02;14.48;;;7.75;;
67965;SDS011;54749;47.850;9.002;2023-04-30T05:51:29;16.10;;;8.40;;
67965;SDS011;54749;47.850;9.002;2023-04-30T05:53:56;15.90;;;7.47;;
67965;SDS011;54749;47.850;9.002;2023-04-30T05:56:24;17.47;;;8.47;;
67965;SDS011;54749;47.850;9.002;2023-04-30T05:58:51;16.48;;;7.97;;
67965;SDS011;54749;47.850;9.002;2023-04-30T06:01:21;15.73;;;8.02;;
67965;SDS011;54749;47.850;9.002;2023-04-30T06:03:48;13.65;;;7.20;;
67965;SDS011;54749;47.850;9.002;2023-04-30T06:06:16;17.20;;;9.05;;
67965;SDS011;54749;47.850;9.002;2023-04-30T06:08:43;14.53;;;7.20;;
67965;SDS011;54749;47.850;9.002;2023-04-30T06:11:11;18.75;;;8.00;;
67965;SDS011;54749;47.850;9.002;2023-04-30T06:13:39;14.38;;;7.53;;
67965;SDS011;54749;47.850;9.002;2023-04-30T06:16:06;16.17;;;8.23;;
67965;SDS011;54749;47.850;9.002;2023-04-30T06:18:34;13.75;;;7.40;;
67965;SDS011;54749;47.850;9.002;2023-04-30T06:21:04;14.80;;;6.97;;
67965;SDS011;54749;47.850;9.002;2023-04-30T06:23:31;13.88;;;7.30;;
67965;SDS011;54749;47.850;9.002;2023-04-30T06:25:58;15.10;;;7.47;;
67965;SDS011;54749;47.850;9.002;2023-04-30T06:28:26;13.52;;;7.45;;
67965;SDS011;54749;47.850;9.002;2023-04-30T06:30:53;17.85;;;8.05;;
67965;SDS011;54749;47.850;9.002;2023-04-30T06:33:21;14.07;;;7.23;;
67965;SDS011;54749;47.850;9.002;2023-04-30T06:35:48;14.80;;;7.20;;
67965;SDS011;54749;47.850;9.002;2023-04-30T06:38:18;15.68;;;7.43;;
67965;SDS011;54749;47.850;9.002;2023-04-30T06:40:45;16.13;;;7.28;;
67965;SDS011;54749;47.850;9.002;2023-04-30T06:43:12;17.60;;;8.60;;
67965;SDS011;54749;47.850;9.002;2023-04-30T06:45:40;14.53;;;7.60;;
67965;SDS011;54749;47.850;9.002;2023-04-30T06:48:07;16.05;;;7.97;;
67965;SDS011;54749;47.850;9.002;2023-04-30T06:50:34;14.93;;;7.90;;
67965;SDS011;54749;47.850;9.002;2023-04-30T06:53:10;14.93;;;7.63;;
67965;SDS011;54749;47.850;9.002;2023-04-30T06:55:38;15.25;;;8.00;;
67965;SDS011;54749;47.850;9.002;2023-04-30T06:58:06;13.90;;;7.17;;
67965;SDS011;54749;47.850;9.002;2023-04-30T07:00:34;11.82;;;6.65;;
67965;SDS011;54749;47.850;9.002;2023-04-30T07:03:01;15.35;;;7.70;;
67965;SDS011;54749;47.850;9.002;2023-04-30T07:05:30;14.02;;;6.97;;
67965;SDS011;54749;47.850;9.002;2023-04-30T07:07:57;13.52;;;6.93;;
67965;SDS011;54749;47.850;9.002;2023-04-30T07:10:27;14.50;;;7.33;;
67965;SDS011;54749;47.850;9.002;2023-04-30T07:12:55;13.52;;;7.07;;
67965;SDS011;54749;47.850;9.002;2023-04-30T07:15:22;13.90;;;6.30;;
67965;SDS011;54749;47.850;9.002;2023-04-30T07:17:49;12.30;;;6.60;;
67965;SDS011;54749;47.850;9.002;2023-04-30T07:20:16;11.23;;;6.18;;
67965;SDS011;54749;47.850;9.002;2023-04-30T07:22:43;13.13;;;6.47;;
67965;SDS011;54749;47.850;9.002;2023-04-30T07:25:12;12.23;;;6.00;;
67965;SDS011;54749;47.850;9.002;2023-04-30T07:27:39;12.25;;;6.78;;
67965;SDS011;54749;47.850;9.002;2023-04-30T07:30:07;13.25;;;6.85;;
67965;SDS011;54749;47.850;9.002;2023-04-30T07:32:36;11.27;;;6.13;;
67965;SDS011;54749;47.850;9.002;2023-04-30T07:35:04;12.93;;;6.70;;
67965;SDS011;54749;47.850;9.002;2023-04-30T07:37:31;11.95;;;6.60;;
67965;SDS011;54749;47.850;9.002;2023-04-30T07:40:01;13.30;;;6.45;;
67965;SDS011;54749;47.850;9.002;2023-04-30T07:42:29;11.40;;;6.18;;
67965;SDS011;54749;47.850;9.002;2023-04-30T07:44:57;11.20;;;5.90;;
67965;SDS011;54749;47.850;9.002;2023-04-30T07:47:24;10.40;;;5.70;;
67965;SDS011;54749;47.850;9.002;2023-04-30T07:49:51;12.40;;;6.05;;
67965;SDS011;54749;47.850;9.002;2023-04-30T07:52:19;10.57;;;6.05;;
67965;SDS011;54749;47.850;9.002;2023-04-30T07:54:47;10.63;;;6.20;;
67965;SDS011;54749;47.850;9.002;2023-04-30T07:57:14;9.82;;;5.80;;
67965;SDS011;54749;47.850;9.002;2023-04-30T07:59:41;11.13;;;5.60;;
67965;SDS011;54749;47.850;9.002;2023-04-30T08:02:08;11.35;;;6.43;;
67965;SDS011;54749;47.850;9.002;2023-04-30T08:04:35;10.73;;;6.03;;
67965;SDS011;54749;47.850;9.002;2023-04-30T08:07:02;10.52;;;5.53;;
67965;SDS011;54749;47.850;9.002;2023-04-30T08:09:30;10.18;;;6.30;;
67965;SDS011;54749;47.850;9.002;2023-04-30T08:11:57;10.70;;;5.60;;
67965;SDS011;54749;47.850;9.002;2023-04-30T08:14:25;9.20;;;5.25;;
67965;SDS011;54749;47.850;9.002;2023-04-30T08:16:52;8.43;;;4.95;;
67965;SDS011;54749;47.850;9.002;2023-04-30T08:19:20;9.48;;;5.35;;
67965;SDS011;54749;47.850;9.002;2023-04-30T08:21:47;9.00;;;5.78;;
67965;SDS011;54749;47.850;9.002;2023-04-30T08:24:14;10.50;;;6.00;;
67965;SDS011;54749;47.850;9.002;2023-04-30T08:26:41;10.45;;;5.90;;
67965;SDS011;54749;47.850;9.002;2023-04-30T08:29:09;9.85;;;5.55;;
67965;SDS011;54749;47.850;9.002;2023-04-30T08:31:36;9.50;;;5.38;;
67965;SDS011;54749;47.850;9.002;2023-04-30T08:34:03;10.13;;;5.72;;
67965;SDS011;54749;47.850;9.002;2023-04-30T08:36:30;8.73;;;5.40;;
67965;SDS011;54749;47.850;9.002;2023-04-30T08:38:58;9.85;;;5.30;;
67965;SDS011;54749;47.850;9.002;2023-04-30T08:41:25;7.80;;;4.72;;
67965;SDS011;54749;47.850;9.002;2023-04-30T08:43:55;9.60;;;5.32;;
67965;SDS011;54749;47.850;9.002;2023-04-30T08:46:28;9.82;;;5.38;;
67965;SDS011;54749;47.850;9.002;2023-04-30T08:49:01;8.90;;;4.67;;
67965;SDS011;54749;47.850;9.002;2023-04-30T08:51:33;7.25;;;4.15;;
67965;SDS011;54749;47.850;9.002;2023-04-30T08:54:01;8.52;;;4.50;;
67965;SDS011;54749;47.850;9.002;2023-04-30T08:56:28;6.78;;;4.00;;
67965;SDS011;54749;47.850;9.002;2023-04-30T08:58:57;7.93;;;4.40;;
67965;SDS011;54749;47.850;9.002;2023-04-30T09:01:24;8.83;;;4.87;;
67965;SDS011;54749;47.850;9.002;2023-04-30T09:03:52;8.00;;;4.60;;
67965;SDS011;54749;47.850;9.002;2023-04-30T09:06:20;7.75;;;3.85;;
67965;SDS011;54749;47.850;9.002;2023-04-30T09:08:48;7.07;;;4.20;;
67965;SDS011;54749;47.850;9.002;2023-04-30T09:11:19;6.57;;;4.18;;
67965;SDS011;54749;47.850;9.002;2023-04-30T09:13:54;6.50;;;4.00;;
67965;SDS011;54749;47.850;9.002;2023-04-30T09:16:23;7.38;;;4.40;;
67965;SDS011;54749;47.850;9.002;2023-04-30T09:18:52;7.18;;;4.35;;
67965;SDS011;54749;47.850;9.002;2023-04-30T09:21:29;7.57;;;3.97;;
67965;SDS011;54749;47.850;9.002;2023-04-30T09:24:01;5.85;;;3.53;;
67965;SDS011;54749;47.850;9.002;2023-04-30T09:29:00;6.30;;;3.90;;
67965;SDS011;54749;47.850;9.002;2023-04-30T09:31:34;7.55;;;4.00;;
67965;SDS011;54749;47.850;9.002;2023-04-30T09:34:05;5.38;;;3.40;;
67965;SDS011;54749;47.850;9.002;2023-04-30T09:36:32;6.50;;;4.20;;
67965;SDS011;54749;47.850;9.002;2023-04-30T09:39:07;8.47;;;3.90;;
67965;SDS011;54749;47.850;9.002;2023-04-30T09:41:41;5.82;;;3.22;;
67965;SDS011;54749;47.850;9.002;2023-04-30T09:44:28;5.72;;;3.30;;
67965;SDS011;54749;47.850;9.002;2023-04-30T09:46:57;5.20;;;3.13;;
67965;SDS011;54749;47.850;9.002;2023-04-30T09:49:25;5.88;;;3.50;;
67965;SDS011;54749;47.850;9.002;2023-04-30T09:51:54;6.97;;;3.60;;
67965;SDS011;54749;47.850;9.002;2023-04-30T09:54:26;7.15;;;3.60;;
67965;SDS011;54749;47.850;9.002;2023-04-30T09:56:56;5.97;;;3.10;;
67965;SDS011;54749;47.850;9.002;2023-04-30T09:59:29;5.20;;;3.15;;
67965;SDS011;54749;47.850;9.002;2023-04-30T10:02:01;7.28;;;3.42;;
67965;SDS011;54749;47.850;9.002;2023-04-30T10:04:40;5.60;;;3.10;;
67965;SDS011;54749;47.850;9.002;2023-04-30T10:07:09;7.10;;;3.10;;
67965;SDS011;54749;47.850;9.002;2023-04-30T10:09:58;6.10;;;3.17;;
67965;SDS011;54749;47.850;9.002;2023-04-30T10:12:42;5.35;;;2.97;;
67965;SDS011;54749;47.850;9.002;2023-04-30T10:15:20;9.68;;;3.83;;
67965;SDS011;54749;47.850;9.002;2023-04-30T10:17:53;4.90;;;2.90;;
67965;SDS011;54749;47.850;9.002;2023-04-30T10:20:26;6.57;;;3.13;;
67965;SDS011;54749;47.850;9.002;2023-04-30T10:22:56;5.30;;;3.10;;
67965;SDS011;54749;47.850;9.002;2023-04-30T10:25:23;5.30;;;3.13;;
67965;SDS011;54749;47.850;9.002;2023-04-30T10:27:52;5.22;;;3.15;;
67965;SDS011;54749;47.850;9.002;2023-04-30T10:30:20;5.97;;;3.30;;
67965;SDS011;54749;47.850;9.002;2023-04-30T10:32:52;4.72;;;2.80;;
67965;SDS011;54749;47.850;9.002;2023-04-30T10:35:23;7.30;;;3.33;;
67965;SDS011;54749;47.850;9.002;2023-04-30T10:37:56;5.70;;;2.95;;
67965;SDS011;54749;47.850;9.002;2023-04-30T10:40:34;6.45;;;3.20;;
67965;SDS011;54749;47.850;9.002;2023-04-30T10:43:02;6.10;;;2.90;;
67965;SDS011;54749;47.850;9.002;2023-04-30T10:45:33;5.65;;;3.20;;
67965;SDS011;54749;47.850;9.002;2023-04-30T10:48:02;6.20;;;3.42;;
67965;SDS011;54749;47.850;9.002;2023-04-30T10:50:30;5.30;;;2.88;;
67965;SDS011;54749;47.850;9.002;2023-04-30T10:53:04;5.35;;;2.88;;
67965;SDS011;54749;47.850;9.002;2023-04-30T10:55:32;5.47;;;2.90;;
67965;SDS011;54749;47.850;9.002;2023-04-30T10:57:59;5.70;;;3.00;;
67965;SDS011;54749;47.850;9.002;2023-04-30T11:00:27;6.05;;;2.92;;
67965;SDS011;54749;47.850;9.002;2023-04-30T11:02:56;5.15;;;3.00;;
67965;SDS011;54749;47.850;9.002;2023-04-30T11:05:35;6.70;;;3.42;;
67965;SDS011;54749;47.850;9.002;2023-04-30T11:08:04;5.57;;;3.07;;
67965;SDS011;54749;47.850;9.002;2023-04-30T11:10:33;5.95;;;3.30;;
67965;SDS011;54749;47.850;9.002;2023-04-30T11:13:04;5.97;;;3.40;;
67965;SDS011;54749;47.850;9.002;2023-04-30T11:15:33;5.45;;;2.60;;
67965;SDS011;54749;47.850;9.002;2023-04-30T11:18:06;5.13;;;2.92;;
67965;SDS011;54749;47.850;9.002;2023-04-30T11:20:38;6.90;;;3.20;;
67965;SDS011;54749;47.850;9.002;2023-04-30T11:23:10;6.85;;;3.30;;
67965;SDS011;54749;47.850;9.002;2023-04-30T11:25:46;6.93;;;3.50;;
67965;SDS011;54749;47.850;9.002;2023-04-30T11:28:14;10.10;;;3.10;;
67965;SDS011;54749;47.850;9.002;2023-04-30T11:30:53;5.90;;;3.30;;
67965;SDS011;54749;47.850;9.002;2023-04-30T11:33:22;5.87;;;3.23;;
67965;SDS011;54749;47.850;9.002;2023-04-30T11:35:51;5.50;;;3.20;;
67965;SDS011;54749;47.850;9.002;2023-04-30T11:38:20;6.00;;;3.25;;
67965;SDS011;54749;47.850;9.002;2023-04-30T11:40:49;5.45;;;3.03;;
67965;SDS011;54749;47.850;9.002;2023-04-30T11:43:34;5.57;;;3.30;;
67965;SDS011;54749;47.850;9.002;2023-04-30T11:46:03;8.90;;;3.30;;
67965;SDS011;54749;47.850;9.002;2023-04-30T11:48:42;6.13;;;3.20;;
67965;SDS011;54749;47.850;9.002;2023-04-30T11:51:14;5.85;;;3.10;;
67965;SDS011;54749;47.850;9.002;2023-04-30T11:53:50;6.13;;;2.88;;
67965;SDS011;54749;47.850;9.002;2023-04-30T11:56:18;5.80;;;2.67;;
67965;SDS011;54749;47.850;9.002;2023-04-30T11:58:48;6.07;;;2.93;;
67965;SDS011;54749;47.850;9.002;2023-04-30T12:01:16;6.20;;;3.10;;
67965;SDS011;54749;47.850;9.002;2023-04-30T12:03:46;5.32;;;2.50;;
67965;SDS011;54749;47.850;9.002;2023-04-30T12:06:25;5.50;;;2.70;;
67965;SDS011;54749;47.850;9.002;2023-04-30T12:08:54;6.40;;;3.13;;
67965;SDS011;54749;47.850;9.002;2023-04-30T12:11:23;7.43;;;3.07;;
67965;SDS011;54749;47.850;9.002;2023-04-30T12:13:55;5.90;;;3.10;;
67965;SDS011;54749;47.850;9.002;2023-04-30T12:16:23;7.60;;;3.28;;
67965;SDS011;54749;47.850;9.002;2023-04-30T12:18:51;6.00;;;3.28;;
67965;SDS011;54749;47.850;9.002;2023-04-30T12:21:19;6.65;;;3.25;;
67965;SDS011;54749;47.850;9.002;2023-04-30T12:23:48;5.20;;;2.80;;
67965;SDS011;54749;47.850;9.002;2023-04-30T12:26:15;5.70;;;2.75;;
67965;SDS011;54749;47.850;9.002;2023-04-30T12:28:45;5.53;;;2.78;;
67965;SDS011;54749;47.850;9.002;2023-04-30T12:31:13;6.00;;;2.90;;
67965;SDS011;54749;47.850;9.002;2023-04-30T12:33:40;6.35;;;3.17;;
67965;SDS011;54749;47.850;9.002;2023-04-30T12:36:11;5.50;;;3.00;;
67965;SDS011;54749;47.850;9.002;2023-04-30T12:38:42;5.30;;;2.50;;
67965;SDS011;54749;47.850;9.002;2023-04-30T12:41:10;5.20;;;2.80;;
67965;SDS011;54749;47.850;9.002;2023-04-30T12:43:40;5.90;;;2.72;;
67965;SDS011;54749;47.850;9.002;2023-04-30T12:46:07;5.72;;;2.85;;
67965;SDS011;54749;47.850;9.002;2023-04-30T12:48:42;5.03;;;2.77;;
67965;SDS011;54749;47.850;9.002;2023-04-30T12:51:10;6.63;;;3.05;;
67965;SDS011;54749;47.850;9.002;2023-04-30T12:53:44;6.68;;;3.10;;
67965;SDS011;54749;47.850;9.002;2023-04-30T12:56:12;5.68;;;3.20;;
67965;SDS011;54749;47.850;9.002;2023-04-30T12:58:42;6.38;;;3.35;;
67965;SDS011;54749;47.850;9.002;2023-04-30T13:01:16;6.43;;;2.87;;
67965;SDS011;54749;47.850;9.002;2023-04-30T13:03:45;5.40;;;2.60;;
67965;SDS011;54749;47.850;9.002;2023-04-30T13:06:12;5.88;;;2.78;;
67965;SDS011;54749;47.850;9.002;2023-04-30T13:08:40;5.53;;;2.60;;
67965;SDS011;54749;47.850;9.002;2023-04-30T13:11:23;4.85;;;2.38;;
67965;SDS011;54749;47.850;9.002;2023-04-30T13:13:52;5.60;;;2.70;;
67965;SDS011;54749;47.850;9.002;2023-04-30T13:16:21;5.28;;;2.38;;
67965;SDS011;54749;47.850;9.002;2023-04-30T13:18:51;6.70;;;2.58;;
67965;SDS011;54749;47.850;9.002;2023-04-30T13:21:18;4.72;;;2.53;;
67965;SDS011;54749;47.850;9.002;2023-04-30T13:23:46;6.10;;;2.80;;
67965;SDS011;54749;47.850;9.002;2023-04-30T13:26:19;6.27;;;3.23;;
67965;SDS011;54749;47.850;9.002;2023-04-30T13:28:49;5.88;;;2.88;;
67965;SDS011;54749;47.850;9.002;2023-04-30T13:31:16;6.80;;;2.80;;
67965;SDS011;54749;47.850;9.002;2023-04-30T13:33:44;6.60;;;2.90;;
67965;SDS011;54749;47.850;9.002;2023-04-30T13:36:11;5.13;;;2.60;;
67965;SDS011;54749;47.850;9.002;2023-04-30T13:38:38;5.23;;;2.63;;
67965;SDS011;54749;47.850;9.002;2023-04-30T13:41:06;5.18;;;2.95;;
67965;SDS011;54749;47.850;9.002;2023-04-30T13:43:33;5.03;;;2.85;;
67965;SDS011;54749;47.850;9.002;2023-04-30T13:46:00;5.28;;;2.97;;
67965;SDS011;54749;47.850;9.002;2023-04-30T13:48:27;5.72;;;2.90;;
67965;SDS011;54749;47.850;9.002;2023-04-30T13:50:55;5.80;;;2.90;;
67965;SDS011;54749;47.850;9.002;2023-04-30T13:53:22;4.95;;;2.80;;
67965;SDS011;54749;47.850;9.002;2023-04-30T13:55:49;6.90;;;3.05;;
67965;SDS011;54749;47.850;9.002;2023-04-30T13:58:16;5.72;;;3.20;;
67965;SDS011;54749;47.850;9.002;2023-04-30T14:00:43;5.30;;;2.88;;
67965;SDS011;54749;47.850;9.002;2023-04-30T14:03:10;5.63;;;3.00;;
67965;SDS011;54749;47.850;9.002;2023-04-30T14:05:38;6.65;;;2.85;;
67965;SDS011;54749;47.850;9.002;2023-04-30T14:08:06;5.53;;;2.85;;
67965;SDS011;54749;47.850;9.002;2023-04-30T14:10:33;5.85;;;3.17;;
67965;SDS011;54749;47.850;9.002;2023-04-30T14:13:00;6.15;;;3.05;;
67965;SDS011;54749;47.850;9.002;2023-04-30T14:15:28;5.87;;;2.77;;
67965;SDS011;54749;47.850;9.002;2023-04-30T14:17:58;5.75;;;3.00;;
67965;SDS011;54749;47.850;9.002;2023-04-30T14:20:26;5.97;;;2.95;;
67965;SDS011;54749;47.850;9.002;2023-04-30T14:22:53;5.45;;;2.58;;
67965;SDS011;54749;47.850;9.002;2023-04-30T14:25:20;5.65;;;3.00;;
67965;SDS011;54749;47.850;9.002;2023-04-30T14:27:47;6.20;;;2.83;;
67965;SDS011;54749;47.850;9.002;2023-04-30T14:30:14;6.32;;;3.58;;
67965;SDS011;54749;47.850;9.002;2023-04-30T14:32:41;5.45;;;2.78;;
67965;SDS011;54749;47.850;9.002;2023-04-30T14:35:09;5.60;;;2.95;;
67965;SDS011;54749;47.850;9.002;2023-04-30T14:37:36;5.25;;;2.83;;
67965;SDS011;54749;47.850;9.002;2023-04-30T14:40:03;5.60;;;2.80;;
67965;SDS011;54749;47.850;9.002;2023-04-30T14:42:32;5.68;;;3.00;;
67965;SDS011;54749;47.850;9.002;2023-04-30T14:45:00;5.65;;;3.30;;
67965;SDS011;54749;47.850;9.002;2023-04-30T14:47:27;6.22;;;3.30;;
67965;SDS011;54749;47.850;9.002;2023-04-30T14:49:55;6.75;;;3.17;;
67965;SDS011;54749;47.850;9.002;2023-04-30T14:52:24;6.60;;;3.10;;
67965;SDS011;54749;47.850;9.002;2023-04-30T14:54:51;7.35;;;3.10;;
67965;SDS011;54749;47.850;9.002;2023-04-30T14:57:19;6.22;;;3.28;;
67965;SDS011;54749;47.850;9.002;2023-04-30T14:59:46;6.40;;;3.25;;
67965;SDS011;54749;47.850;9.002;2023-04-30T15:02:14;6.10;;;2.85;;
67965;SDS011;54749;47.850;9.002;2023-04-30T15:04:41;4.97;;;2.80;;
67965;SDS011;54749;47.850;9.002;2023-04-30T15:07:11;6.85;;;2.92;;
67965;SDS011;54749;47.850;9.002;2023-04-30T15:09:39;6.60;;;3.35;;
67965;SDS011;54749;47.850;9.002;2023-04-30T15:12:06;5.60;;;3.00;;